sensor_id;sensor_type;location;lat;lon;timestamp;P1;durP1;ratioP1;P2;durP2;ratioP2
2562;SDS011;1291;51.420;6.970;2023-03-01T00:01:30;10.87;;;8.63;;
2562;SDS011;1291;51.420;6.970;2023-03-01T00:03:56;14.47;;;8.53;;
2562;SDS011;1291;51.420;6.970;2023-03-01T00:06:22;11.30;;;8.33;;
2562;SDS011;1291;51.420;6.970;2023-03-01T00:08:48;12.13;;;8.63;;
2562;SDS011;1291;51.420;6.970;2023-03-01T00:11:15;13.70;;;8.70;;
2562;SDS011;1291;51.420;6.970;2023-03-01T00:13:43;12.43;;;8.83;;
2562;SDS011;1291;51.420;6.970;2023-03-01T00:16:11;11.07;;;7.87;;
2562;SDS011;1291;51.420;6.970;2023-03-01T00:18:38;17.00;;;8.43;;
2562;SDS011;1291;51.420;6.970;2023-03-01T00:21:07;13.13;;;8.43;;
2562;SDS011;1291;51.420;6.970;2023-03-01T00:23:35;10.70;;;9.03;;
2562;SDS011;1291;51.420;6.970;2023-03-01T00:26:01;14.30;;;8.97;;
2562;SDS011;1291;51.420;6.970;2023-03-01T00:28:31;13.47;;;8.67;;
2562;SDS011;1291;51.420;6.970;2023-03-01T00:30:56;12.10;;;8.77;;
2562;SDS011;1291;51.420;6.970;2023-03-01T00:33:29;10.40;;;7.63;;
2562;SDS011;1291;51.420;6.970;2023-03-01T00:35:54;15.00;;;8.10;;
2562;SDS011;1291;51.420;6.970;2023-03-01T00:38:19;13.00;;;8.57;;
2562;SDS011;1291;51.420;6.970;2023-03-01T00:40:44;12.83;;;8.23;;
2562;SDS011;1291;51.420;6.970;2023-03-01T00:43:10;10.73;;;8.63;;
2562;SDS011;1291;51.420;6.970;2023-03-01T00:45:35;15.67;;;8.67;;
2562;SDS011;1291;51.420;6.970;2023-03-01T00:48:00;11.27;;;8.80;;
2562;SDS011;1291;51.420;6.970;2023-03-01T00:50:26;8.97;;;7.90;;
2562;SDS011;1291;51.420;6.970;2023-03-01T00:52:52;13.20;;;7.90;;
2562;SDS011;1291;51.420;6.970;2023-03-01T00:55:18;14.40;;;8.40;;
2562;SDS011;1291;51.420;6.970;2023-03-01T00:57:43;12.90;;;8.23;;
2562;SDS011;1291;51.420;6.970;2023-03-01T01:00:09;13.10;;;8.50;;
2562;SDS011;1291;51.420;6.970;2023-03-01T01:02:36;12.63;;;9.43;;
2562;SDS011;1291;51.420;6.970;2023-03-01T01:05:02;10.53;;;8.33;;
2562;SDS011;1291;51.420;6.970;2023-03-01T01:07:28;10.97;;;8.30;;
2562;SDS011;1291;51.420;6.970;2023-03-01T01:09:54;12.97;;;9.03;;
2562;SDS011;1291;51.420;6.970;2023-03-01T01:12:19;10.80;;;8.90;;
2562;SDS011;1291;51.420;6.970;2023-03-01T01:14:44;14.27;;;7.97;;
2562;SDS011;1291;51.420;6.970;2023-03-01T01:17:11;14.93;;;7.97;;
2562;SDS011;1291;51.420;6.970;2023-03-01T01:19:36;11.03;;;8.67;;
2562;SDS011;1291;51.420;6.970;2023-03-01T01:22:01;17.60;;;9.80;;
2562;SDS011;1291;51.420;6.970;2023-03-01T01:24:29;10.77;;;8.07;;
2562;SDS011;1291;51.420;6.970;2023-03-01T01:26:54;13.20;;;9.13;;
2562;SDS011;1291;51.420;6.970;2023-03-01T01:29:20;13.83;;;9.60;;
2562;SDS011;1291;51.420;6.970;2023-03-01T01:31:46;11.60;;;8.83;;
2562;SDS011;1291;51.420;6.970;2023-03-01T01:34:13;17.03;;;8.70;;
2562;SDS011;1291;51.420;6.970;2023-03-01T01:36:40;10.40;;;8.60;;
2562;SDS011;1291;51.420;6.970;2023-03-01T01:39:06;13.20;;;8.93;;
2562;SDS011;1291;51.420;6.970;2023-03-01T01:41:32;12.83;;;9.27;;
2562;SDS011;1291;51.420;6.970;2023-03-01T01:47:00;13.47;;;9.67;;
2562;SDS011;1291;51.420;6.970;2023-03-01T01:49:38;11.60;;;8.73;;
2562;SDS011;1291;51.420;6.970;2023-03-01T01:57:22;12.83;;;9.03;;
2562;SDS011;1291;51.420;6.970;2023-03-01T02:00:00;11.37;;;8.50;;
2562;SDS011;1291;51.420;6.970;2023-03-01T02:02:30;14.07;;;10.00;;
2562;SDS011;1291;51.420;6.970;2023-03-01T02:05:01;20.83;;;9.63;;
2562;SDS011;1291;51.420;6.970;2023-03-01T02:07:35;14.13;;;9.10;;
2562;SDS011;1291;51.420;6.970;2023-03-01T02:10:04;11.00;;;9.17;;
2562;SDS011;1291;51.420;6.970;2023-03-01T02:12:30;14.13;;;9.73;;
2562;SDS011;1291;51.420;6.970;2023-03-01T02:14:57;13.33;;;9.17;;
2562;SDS011;1291;51.420;6.970;2023-03-01T02:17:22;12.30;;;8.90;;
2562;SDS011;1291;51.420;6.970;2023-03-01T02:22:24;13.60;;;9.33;;
2562;SDS011;1291;51.420;6.970;2023-03-01T02:30:19;13.73;;;9.27;;
2562;SDS011;1291;51.420;6.970;2023-03-01T02:32:45;11.07;;;8.80;;
2562;SDS011;1291;51.420;6.970;2023-03-01T02:35:13;12.27;;;9.30;;
2562;SDS011;1291;51.420;6.970;2023-03-01T02:37:41;13.47;;;9.27;;
2562;SDS011;1291;51.420;6.970;2023-03-01T02:40:08;10.67;;;9.23;;
2562;SDS011;1291;51.420;6.970;2023-03-01T02:42:41;12.43;;;9.13;;
2562;SDS011;1291;51.420;6.970;2023-03-01T02:45:13;11.03;;;9.23;;
2562;SDS011;1291;51.420;6.970;2023-03-01T02:47:39;14.00;;;9.83;;
2562;SDS011;1291;51.420;6.970;2023-03-01T02:50:10;13.50;;;9.87;;
2562;SDS011;1291;51.420;6.970;2023-03-01T02:52:47;11.83;;;8.93;;
2562;SDS011;1291;51.420;6.970;2023-03-01T02:55:25;13.10;;;10.00;;
2562;SDS011;1291;51.420;6.970;2023-03-01T02:57:52;13.23;;;9.50;;
2562;SDS011;1291;51.420;6.970;2023-03-01T03:00:20;14.03;;;10.33;;
2562;SDS011;1291;51.420;6.970;2023-03-01T03:02:48;10.90;;;9.17;;
2562;SDS011;1291;51.420;6.970;2023-03-01T03:05:23;13.73;;;9.70;;
2562;SDS011;1291;51.420;6.970;2023-03-01T03:07:50;15.17;;;10.00;;
2562;SDS011;1291;51.420;6.970;2023-03-01T03:10:19;12.40;;;9.57;;
2562;SDS011;1291;51.420;6.970;2023-03-01T03:12:50;17.07;;;9.30;;
2562;SDS011;1291;51.420;6.970;2023-03-01T03:15:17;13.47;;;9.43;;
2562;SDS011;1291;51.420;6.970;2023-03-01T03:17:43;11.90;;;9.50;;
2562;SDS011;1291;51.420;6.970;2023-03-01T03:20:10;15.80;;;9.80;;
2562;SDS011;1291;51.420;6.970;2023-03-01T03:22:39;12.90;;;9.43;;
2562;SDS011;1291;51.420;6.970;2023-03-01T03:25:06;14.77;;;9.60;;
2562;SDS011;1291;51.420;6.970;2023-03-01T03:27:35;13.30;;;9.53;;
2562;SDS011;1291;51.420;6.970;2023-03-01T03:30:05;16.13;;;9.37;;
2562;SDS011;1291;51.420;6.970;2023-03-01T03:32:37;14.93;;;9.57;;
2562;SDS011;1291;51.420;6.970;2023-03-01T03:35:05;15.60;;;10.70;;
2562;SDS011;1291;51.420;6.970;2023-03-01T03:37:43;15.60;;;9.47;;
2562;SDS011;1291;51.420;6.970;2023-03-01T03:40:27;14.90;;;10.33;;
2562;SDS011;1291;51.420;6.970;2023-03-01T03:43:03;11.50;;;8.77;;
2562;SDS011;1291;51.420;6.970;2023-03-01T03:45:31;14.43;;;10.27;;
2562;SDS011;1291;51.420;6.970;2023-03-01T03:48:03;13.17;;;9.60;;
2562;SDS011;1291;51.420;6.970;2023-03-01T03:50:30;16.10;;;10.97;;
2562;SDS011;1291;51.420;6.970;2023-03-01T03:52:56;13.30;;;9.13;;
2562;SDS011;1291;51.420;6.970;2023-03-01T03:55:22;13.53;;;9.77;;
2562;SDS011;1291;51.420;6.970;2023-03-01T03:57:47;14.17;;;9.33;;
2562;SDS011;1291;51.420;6.970;2023-03-01T04:00:20;11.63;;;9.47;;
2562;SDS011;1291;51.420;6.970;2023-03-01T04:02:48;12.57;;;8.70;;
2562;SDS011;1291;51.420;6.970;2023-03-01T04:05:15;13.47;;;10.10;;
2562;SDS011;1291;51.420;6.970;2023-03-01T04:07:42;13.73;;;10.00;;
2562;SDS011;1291;51.420;6.970;2023-03-01T04:10:09;12.20;;;9.70;;
2562;SDS011;1291;51.420;6.970;2023-03-01T04:12:36;15.40;;;9.37;;
2562;SDS011;1291;51.420;6.970;2023-03-01T04:15:02;14.97;;;10.33;;
2562;SDS011;1291;51.420;6.970;2023-03-01T04:17:45;13.07;;;9.60;;
2562;SDS011;1291;51.420;6.970;2023-03-01T04:20:15;18.73;;;10.00;;
2562;SDS011;1291;51.420;6.970;2023-03-01T04:22:43;12.90;;;9.33;;
2562;SDS011;1291;51.420;6.970;2023-03-01T04:25:11;11.77;;;8.70;;
2562;SDS011;1291;51.420;6.970;2023-03-01T04:27:39;13.93;;;9.43;;
2562;SDS011;1291;51.420;6.970;2023-03-01T04:30:07;14.93;;;9.33;;
2562;SDS011;1291;51.420;6.970;2023-03-01T04:32:33;11.97;;;9.30;;
2562;SDS011;1291;51.420;6.970;2023-03-01T04:34:59;11.27;;;9.30;;
2562;SDS011;1291;51.420;6.970;2023-03-01T04:37:25;12.27;;;9.37;;
2562;SDS011;1291;51.420;6.970;2023-03-01T04:39:50;15.10;;;10.20;;
2562;SDS011;1291;51.420;6.970;2023-03-01T04:42:15;17.63;;;10.33;;
2562;SDS011;1291;51.420;6.970;2023-03-01T04:44:42;11.47;;;8.93;;
2562;SDS011;1291;51.420;6.970;2023-03-01T04:47:08;15.77;;;10.37;;
2562;SDS011;1291;51.420;6.970;2023-03-01T04:49:33;13.47;;;10.17;;
2562;SDS011;1291;51.420;6.970;2023-03-01T04:51:59;12.23;;;9.23;;
2562;SDS011;1291;51.420;6.970;2023-03-01T04:54:27;13.17;;;10.17;;
2562;SDS011;1291;51.420;6.970;2023-03-01T04:56:53;13.80;;;9.30;;
2562;SDS011;1291;51.420;6.970;2023-03-01T04:59:18;14.17;;;10.07;;
2562;SDS011;1291;51.420;6.970;2023-03-01T05:01:48;12.37;;;9.10;;
2562;SDS011;1291;51.420;6.970;2023-03-01T05:04:14;12.80;;;9.90;;
2562;SDS011;1291;51.420;6.970;2023-03-01T05:06:40;15.77;;;10.47;;
2562;SDS011;1291;51.420;6.970;2023-03-01T05:09:05;15.03;;;10.30;;
2562;SDS011;1291;51.420;6.970;2023-03-01T05:11:31;14.67;;;10.13;;
2562;SDS011;1291;51.420;6.970;2023-03-01T05:14:01;13.93;;;10.17;;
2562;SDS011;1291;51.420;6.970;2023-03-01T05:16:27;13.13;;;9.43;;
2562;SDS011;1291;51.420;6.970;2023-03-01T05:18:52;16.03;;;10.87;;
2562;SDS011;1291;51.420;6.970;2023-03-01T05:21:17;15.37;;;10.07;;
2562;SDS011;1291;51.420;6.970;2023-03-01T05:23:43;16.00;;;10.67;;
2562;SDS011;1291;51.420;6.970;2023-03-01T05:26:09;15.13;;;10.43;;
2562;SDS011;1291;51.420;6.970;2023-03-01T05:28:35;13.30;;;10.13;;
2562;SDS011;1291;51.420;6.970;2023-03-01T05:31:00;16.57;;;10.57;;
2562;SDS011;1291;51.420;6.970;2023-03-01T05:33:25;15.87;;;10.07;;
2562;SDS011;1291;51.420;6.970;2023-03-01T05:35:51;16.20;;;10.47;;
2562;SDS011;1291;51.420;6.970;2023-03-01T05:38:18;15.43;;;9.90;;
2562;SDS011;1291;51.420;6.970;2023-03-01T05:40:45;14.50;;;10.37;;
2562;SDS011;1291;51.420;6.970;2023-03-01T05:43:13;12.60;;;10.57;;
2562;SDS011;1291;51.420;6.970;2023-03-01T05:45:41;17.20;;;10.97;;
2562;SDS011;1291;51.420;6.970;2023-03-01T05:48:07;13.83;;;10.23;;
2562;SDS011;1291;51.420;6.970;2023-03-01T05:50:37;14.40;;;10.73;;
2562;SDS011;1291;51.420;6.970;2023-03-01T05:53:09;11.90;;;9.60;;
2562;SDS011;1291;51.420;6.970;2023-03-01T05:55:37;14.60;;;10.83;;
2562;SDS011;1291;51.420;6.970;2023-03-01T05:58:04;14.33;;;10.70;;
2562;SDS011;1291;51.420;6.970;2023-03-01T06:00:31;15.00;;;10.60;;
2562;SDS011;1291;51.420;6.970;2023-03-01T06:02:57;14.27;;;11.07;;
2562;SDS011;1291;51.420;6.970;2023-03-01T06:05:23;15.67;;;10.47;;
2562;SDS011;1291;51.420;6.970;2023-03-01T06:07:50;13.77;;;10.87;;
2562;SDS011;1291;51.420;6.970;2023-03-01T06:10:16;17.00;;;10.53;;
2562;SDS011;1291;51.420;6.970;2023-03-01T06:12:43;14.17;;;10.87;;
2562;SDS011;1291;51.420;6.970;2023-03-01T06:15:09;15.17;;;10.73;;
2562;SDS011;1291;51.420;6.970;2023-03-01T06:17:36;13.93;;;10.40;;
2562;SDS011;1291;51.420;6.970;2023-03-01T06:20:04;14.30;;;10.87;;
2562;SDS011;1291;51.420;6.970;2023-03-01T06:22:31;14.67;;;10.90;;
2562;SDS011;1291;51.420;6.970;2023-03-01T06:24:56;15.00;;;10.70;;
2562;SDS011;1291;51.420;6.970;2023-03-01T06:27:21;16.17;;;11.20;;
2562;SDS011;1291;51.420;6.970;2023-03-01T06:29:46;18.47;;;11.70;;
2562;SDS011;1291;51.420;6.970;2023-03-01T06:32:12;15.57;;;10.97;;
2562;SDS011;1291;51.420;6.970;2023-03-01T06:34:37;17.20;;;11.00;;
2562;SDS011;1291;51.420;6.970;2023-03-01T06:37:02;16.30;;;10.80;;
2562;SDS011;1291;51.420;6.970;2023-03-01T06:39:30;15.07;;;12.00;;
2562;SDS011;1291;51.420;6.970;2023-03-01T06:41:57;16.40;;;11.60;;
2562;SDS011;1291;51.420;6.970;2023-03-01T06:44:23;19.50;;;12.00;;
2562;SDS011;1291;51.420;6.970;2023-03-01T06:46:48;15.57;;;11.37;;
2562;SDS011;1291;51.420;6.970;2023-03-01T06:49:13;22.13;;;12.57;;
2562;SDS011;1291;51.420;6.970;2023-03-01T06:51:41;17.50;;;11.10;;
2562;SDS011;1291;51.420;6.970;2023-03-01T06:54:06;13.40;;;11.40;;
2562;SDS011;1291;51.420;6.970;2023-03-01T06:56:31;14.67;;;11.40;;
2562;SDS011;1291;51.420;6.970;2023-03-01T06:58:57;14.90;;;11.13;;
2562;SDS011;1291;51.420;6.970;2023-03-01T07:01:24;16.97;;;10.97;;
2562;SDS011;1291;51.420;6.970;2023-03-01T07:03:49;18.83;;;12.17;;
2562;SDS011;1291;51.420;6.970;2023-03-01T07:06:15;16.53;;;11.00;;
2562;SDS011;1291;51.420;6.970;2023-03-01T07:08:40;16.33;;;12.73;;
2562;SDS011;1291;51.420;6.970;2023-03-01T07:11:06;17.23;;;12.17;;
2562;SDS011;1291;51.420;6.970;2023-03-01T07:13:32;15.40;;;11.67;;
2562;SDS011;1291;51.420;6.970;2023-03-01T07:15:58;16.47;;;11.33;;
2562;SDS011;1291;51.420;6.970;2023-03-01T07:18:24;14.27;;;11.43;;
2562;SDS011;1291;51.420;6.970;2023-03-01T07:20:49;16.70;;;12.27;;
2562;SDS011;1291;51.420;6.970;2023-03-01T07:23:15;18.03;;;12.50;;
2562;SDS011;1291;51.420;6.970;2023-03-01T07:25:40;18.93;;;12.37;;
2562;SDS011;1291;51.420;6.970;2023-03-01T07:28:05;17.17;;;12.50;;
2562;SDS011;1291;51.420;6.970;2023-03-01T07:30:31;15.80;;;12.40;;
2562;SDS011;1291;51.420;6.970;2023-03-01T07:32:57;15.87;;;11.67;;
2562;SDS011;1291;51.420;6.970;2023-03-01T07:35:25;15.57;;;11.67;;
2562;SDS011;1291;51.420;6.970;2023-03-01T07:37:51;16.33;;;11.67;;
2562;SDS011;1291;51.420;6.970;2023-03-01T07:40:17;17.93;;;12.37;;
2562;SDS011;1291;51.420;6.970;2023-03-01T07:42:42;19.13;;;12.47;;
2562;SDS011;1291;51.420;6.970;2023-03-01T07:45:08;17.93;;;11.77;;
2562;SDS011;1291;51.420;6.970;2023-03-01T07:47:34;17.07;;;12.20;;
2562;SDS011;1291;51.420;6.970;2023-03-01T07:49:59;16.67;;;11.90;;
2562;SDS011;1291;51.420;6.970;2023-03-01T07:52:26;17.33;;;11.73;;
2562;SDS011;1291;51.420;6.970;2023-03-01T07:54:52;16.13;;;11.33;;
2562;SDS011;1291;51.420;6.970;2023-03-01T07:57:17;15.77;;;11.07;;
2562;SDS011;1291;51.420;6.970;2023-03-01T07:59:42;15.17;;;12.00;;
2562;SDS011;1291;51.420;6.970;2023-03-01T08:02:08;17.47;;;12.33;;
2562;SDS011;1291;51.420;6.970;2023-03-01T08:04:35;13.80;;;11.30;;
2562;SDS011;1291;51.420;6.970;2023-03-01T08:07:00;14.60;;;10.73;;
2562;SDS011;1291;51.420;6.970;2023-03-01T08:09:26;21.00;;;11.97;;
2562;SDS011;1291;51.420;6.970;2023-03-01T08:11:51;16.87;;;10.70;;
2562;SDS011;1291;51.420;6.970;2023-03-01T08:14:17;16.10;;;11.17;;
2562;SDS011;1291;51.420;6.970;2023-03-01T08:16:42;17.10;;;11.07;;
2562;SDS011;1291;51.420;6.970;2023-03-01T08:19:09;15.30;;;10.40;;
2562;SDS011;1291;51.420;6.970;2023-03-01T08:21:36;14.77;;;11.03;;
2562;SDS011;1291;51.420;6.970;2023-03-01T08:24:05;15.53;;;10.60;;
2562;SDS011;1291;51.420;6.970;2023-03-01T08:26:32;14.20;;;10.30;;
2562;SDS011;1291;51.420;6.970;2023-03-01T08:28:59;16.97;;;10.87;;
2562;SDS011;1291;51.420;6.970;2023-03-01T08:31:27;18.30;;;12.00;;
2562;SDS011;1291;51.420;6.970;2023-03-01T08:33:58;16.13;;;11.20;;
2562;SDS011;1291;51.420;6.970;2023-03-01T08:36:36;16.07;;;10.70;;
2562;SDS011;1291;51.420;6.970;2023-03-01T08:39:03;13.23;;;10.67;;
2562;SDS011;1291;51.420;6.970;2023-03-01T08:41:29;11.93;;;9.57;;
2562;SDS011;1291;51.420;6.970;2023-03-01T08:43:55;15.57;;;11.53;;
2562;SDS011;1291;51.420;6.970;2023-03-01T08:46:27;14.27;;;9.93;;
2562;SDS011;1291;51.420;6.970;2023-03-01T08:48:56;16.93;;;10.60;;
2562;SDS011;1291;51.420;6.970;2023-03-01T08:51:22;13.00;;;10.33;;
2562;SDS011;1291;51.420;6.970;2023-03-01T08:53:49;16.27;;;9.80;;
2562;SDS011;1291;51.420;6.970;2023-03-01T08:56:14;12.73;;;9.30;;
2562;SDS011;1291;51.420;6.970;2023-03-01T08:58:47;12.80;;;9.73;;
2562;SDS011;1291;51.420;6.970;2023-03-01T09:01:17;16.00;;;10.47;;
2562;SDS011;1291;51.420;6.970;2023-03-01T09:03:44;14.77;;;10.23;;
2562;SDS011;1291;51.420;6.970;2023-03-01T09:06:10;14.67;;;10.23;;
2562;SDS011;1291;51.420;6.970;2023-03-01T09:08:37;11.30;;;9.60;;
2562;SDS011;1291;51.420;6.970;2023-03-01T09:11:04;14.23;;;9.40;;
2562;SDS011;1291;51.420;6.970;2023-03-01T09:13:31;14.00;;;9.23;;
2562;SDS011;1291;51.420;6.970;2023-03-01T09:15:58;14.30;;;9.27;;
2562;SDS011;1291;51.420;6.970;2023-03-01T09:18:26;14.27;;;9.67;;
2562;SDS011;1291;51.420;6.970;2023-03-01T09:20:51;17.50;;;9.87;;
2562;SDS011;1291;51.420;6.970;2023-03-01T09:23:16;15.03;;;9.80;;
2562;SDS011;1291;51.420;6.970;2023-03-01T09:25:41;16.90;;;10.53;;
2562;SDS011;1291;51.420;6.970;2023-03-01T09:28:07;13.33;;;9.40;;
2562;SDS011;1291;51.420;6.970;2023-03-01T09:30:32;12.87;;;9.37;;
2562;SDS011;1291;51.420;6.970;2023-03-01T09:32:58;16.03;;;9.40;;
2562;SDS011;1291;51.420;6.970;2023-03-01T09:35:23;13.80;;;8.80;;
2562;SDS011;1291;51.420;6.970;2023-03-01T09:37:49;11.93;;;8.93;;
2562;SDS011;1291;51.420;6.970;2023-03-01T09:40:24;15.70;;;9.00;;
2562;SDS011;1291;51.420;6.970;2023-03-01T09:42:55;13.33;;;9.37;;
2562;SDS011;1291;51.420;6.970;2023-03-01T09:45:37;16.10;;;9.27;;
2562;SDS011;1291;51.420;6.970;2023-03-01T09:48:06;13.67;;;8.90;;
2562;SDS011;1291;51.420;6.970;2023-03-01T09:50:41;16.40;;;8.93;;
2562;SDS011;1291;51.420;6.970;2023-03-01T09:53:15;12.67;;;9.03;;
2562;SDS011;1291;51.420;6.970;2023-03-01T09:55:55;13.03;;;8.93;;
2562;SDS011;1291;51.420;6.970;2023-03-01T10:01:32;12.97;;;9.40;;
2562;SDS011;1291;51.420;6.970;2023-03-01T10:09:36;12.80;;;8.97;;
2562;SDS011;1291;51.420;6.970;2023-03-01T10:12:06;15.27;;;8.73;;
2562;SDS011;1291;51.420;6.970;2023-03-01T10:14:36;13.70;;;9.23;;
2562;SDS011;1291;51.420;6.970;2023-03-01T10:20:05;13.10;;;8.33;;
2562;SDS011;1291;51.420;6.970;2023-03-01T10:22:41;10.87;;;8.83;;
2562;SDS011;1291;51.420;6.970;2023-03-01T10:25:08;12.63;;;8.77;;
2562;SDS011;1291;51.420;6.970;2023-03-01T10:27:42;11.10;;;7.93;;
2562;SDS011;1291;51.420;6.970;2023-03-01T10:30:19;13.20;;;7.97;;
2562;SDS011;1291;51.420;6.970;2023-03-01T10:35:52;11.87;;;8.20;;
2562;SDS011;1291;51.420;6.970;2023-03-01T10:38:18;11.53;;;8.17;;
2562;SDS011;1291;51.420;6.970;2023-03-01T10:43:25;10.53;;;7.63;;
2562;SDS011;1291;51.420;6.970;2023-03-01T10:45:57;9.20;;;7.60;;
2562;SDS011;1291;51.420;6.970;2023-03-01T10:48:23;10.97;;;7.50;;
2562;SDS011;1291;51.420;6.970;2023-03-01T10:53:30;9.93;;;7.17;;
2562;SDS011;1291;51.420;6.970;2023-03-01T10:56:09;12.37;;;7.67;;
2562;SDS011;1291;51.420;6.970;2023-03-01T10:58:38;11.23;;;7.30;;
2562;SDS011;1291;51.420;6.970;2023-03-01T11:06:35;8.57;;;6.70;;
2562;SDS011;1291;51.420;6.970;2023-03-01T11:09:19;9.47;;;7.03;;
2562;SDS011;1291;51.420;6.970;2023-03-01T11:11:46;9.43;;;6.30;;
2562;SDS011;1291;51.420;6.970;2023-03-01T11:14:20;10.27;;;6.80;;
2562;SDS011;1291;51.420;6.970;2023-03-01T11:16:49;10.13;;;7.40;;
2562;SDS011;1291;51.420;6.970;2023-03-01T11:19:24;10.03;;;6.50;;
2562;SDS011;1291;51.420;6.970;2023-03-01T11:24:18;12.80;;;6.47;;
2562;SDS011;1291;51.420;6.970;2023-03-01T11:26:45;8.07;;;6.70;;
2562;SDS011;1291;51.420;6.970;2023-03-01T11:32:06;12.20;;;7.30;;
2562;SDS011;1291;51.420;6.970;2023-03-01T11:34:50;11.40;;;6.53;;
2562;SDS011;1291;51.420;6.970;2023-03-01T11:40:21;9.70;;;7.00;;
2562;SDS011;1291;51.420;6.970;2023-03-01T11:42:53;10.10;;;6.80;;
2562;SDS011;1291;51.420;6.970;2023-03-01T11:45:47;9.03;;;7.43;;
2562;SDS011;1291;51.420;6.970;2023-03-01T11:48:25;12.93;;;7.20;;
2562;SDS011;1291;51.420;6.970;2023-03-01T11:51:14;10.07;;;6.70;;
2562;SDS011;1291;51.420;6.970;2023-03-01T11:56:55;9.93;;;6.20;;
2562;SDS011;1291;51.420;6.970;2023-03-01T12:02:23;9.93;;;6.97;;
2562;SDS011;1291;51.420;6.970;2023-03-01T12:05:03;10.70;;;7.40;;
2562;SDS011;1291;51.420;6.970;2023-03-01T12:07:51;11.03;;;7.20;;
2562;SDS011;1291;51.420;6.970;2023-03-01T12:10:33;11.03;;;6.80;;
2562;SDS011;1291;51.420;6.970;2023-03-01T12:21:05;9.13;;;7.17;;
2562;SDS011;1291;51.420;6.970;2023-03-01T12:24:00;11.03;;;7.47;;
2562;SDS011;1291;51.420;6.970;2023-03-01T12:32:15;10.97;;;6.83;;
2562;SDS011;1291;51.420;6.970;2023-03-01T12:39:55;8.70;;;6.30;;
2562;SDS011;1291;51.420;6.970;2023-03-01T12:51:14;9.10;;;6.70;;
2562;SDS011;1291;51.420;6.970;2023-03-01T12:53:44;10.30;;;6.40;;
2562;SDS011;1291;51.420;6.970;2023-03-01T12:56:14;8.77;;;6.63;;
2562;SDS011;1291;51.420;6.970;2023-03-01T13:01:34;9.07;;;6.60;;
2562;SDS011;1291;51.420;6.970;2023-03-01T13:06:54;8.40;;;6.23;;
2562;SDS011;1291;51.420;6.970;2023-03-01T13:09:27;8.80;;;6.90;;
2562;SDS011;1291;51.420;6.970;2023-03-01T13:12:00;9.23;;;6.70;;
2562;SDS011;1291;51.420;6.970;2023-03-01T13:16:52;9.63;;;7.00;;
2562;SDS011;1291;51.420;6.970;2023-03-01T13:19:19;9.07;;;6.90;;
2562;SDS011;1291;51.420;6.970;2023-03-01T13:21:47;8.47;;;7.13;;
2562;SDS011;1291;51.420;6.970;2023-03-01T13:32:21;10.23;;;6.43;;
2562;SDS011;1291;51.420;6.970;2023-03-01T13:34:47;11.20;;;7.00;;
2562;SDS011;1291;51.420;6.970;2023-03-01T13:37:20;11.40;;;7.33;;
2562;SDS011;1291;51.420;6.970;2023-03-01T13:39:47;10.07;;;6.87;;
2562;SDS011;1291;51.420;6.970;2023-03-01T13:42:33;8.57;;;6.40;;
2562;SDS011;1291;51.420;6.970;2023-03-01T13:45:02;12.60;;;6.83;;
2562;SDS011;1291;51.420;6.970;2023-03-01T13:47:29;14.33;;;6.83;;
2562;SDS011;1291;51.420;6.970;2023-03-01T13:49:59;10.97;;;6.93;;
2562;SDS011;1291;51.420;6.970;2023-03-01T13:52:45;10.13;;;6.50;;
2562;SDS011;1291;51.420;6.970;2023-03-01T13:55:23;11.00;;;7.63;;
2562;SDS011;1291;51.420;6.970;2023-03-01T13:57:55;10.00;;;7.10;;
2562;SDS011;1291;51.420;6.970;2023-03-01T14:00:35;10.33;;;6.50;;
2562;SDS011;1291;51.420;6.970;2023-03-01T14:03:08;11.93;;;7.03;;
2562;SDS011;1291;51.420;6.970;2023-03-01T14:05:34;9.23;;;6.57;;
2562;SDS011;1291;51.420;6.970;2023-03-01T14:08:02;10.97;;;7.07;;
2562;SDS011;1291;51.420;6.970;2023-03-01T14:19:39;8.27;;;6.70;;
2562;SDS011;1291;51.420;6.970;2023-03-01T14:22:20;10.50;;;6.93;;
2562;SDS011;1291;51.420;6.970;2023-03-01T14:24:47;11.47;;;7.13;;
2562;SDS011;1291;51.420;6.970;2023-03-01T14:27:14;8.17;;;6.73;;
2562;SDS011;1291;51.420;6.970;2023-03-01T14:29:41;11.40;;;7.47;;
2562;SDS011;1291;51.420;6.970;2023-03-01T14:32:30;10.30;;;7.73;;
2562;SDS011;1291;51.420;6.970;2023-03-01T14:34:57;10.57;;;7.27;;
2562;SDS011;1291;51.420;6.970;2023-03-01T14:39:54;8.40;;;7.00;;
2562;SDS011;1291;51.420;6.970;2023-03-01T14:42:22;8.73;;;7.53;;
2562;SDS011;1291;51.420;6.970;2023-03-01T14:44:51;11.83;;;7.43;;
2562;SDS011;1291;51.420;6.970;2023-03-01T14:47:25;10.00;;;6.80;;
2562;SDS011;1291;51.420;6.970;2023-03-01T14:49:56;12.40;;;7.93;;
2562;SDS011;1291;51.420;6.970;2023-03-01T14:52:25;10.53;;;7.23;;
2562;SDS011;1291;51.420;6.970;2023-03-01T14:55:09;14.43;;;7.33;;
2562;SDS011;1291;51.420;6.970;2023-03-01T14:57:44;9.77;;;7.17;;
2562;SDS011;1291;51.420;6.970;2023-03-01T15:00:16;10.73;;;7.80;;
2562;SDS011;1291;51.420;6.970;2023-03-01T15:02:45;11.77;;;8.23;;
2562;SDS011;1291;51.420;6.970;2023-03-01T15:05:13;10.97;;;7.50;;
2562;SDS011;1291;51.420;6.970;2023-03-01T15:07:40;12.60;;;6.97;;
2562;SDS011;1291;51.420;6.970;2023-03-01T15:10:23;11.50;;;7.40;;
2562;SDS011;1291;51.420;6.970;2023-03-01T15:12:51;9.93;;;7.37;;
2562;SDS011;1291;51.420;6.970;2023-03-01T15:15:31;11.50;;;7.30;;
2562;SDS011;1291;51.420;6.970;2023-03-01T15:18:11;12.97;;;7.70;;
2562;SDS011;1291;51.420;6.970;2023-03-01T15:20:40;10.00;;;7.03;;
2562;SDS011;1291;51.420;6.970;2023-03-01T15:23:06;9.00;;;6.83;;
2562;SDS011;1291;51.420;6.970;2023-03-01T15:25:44;10.67;;;7.73;;
2562;SDS011;1291;51.420;6.970;2023-03-01T15:28:18;8.57;;;6.77;;
2562;SDS011;1291;51.420;6.970;2023-03-01T15:30:45;9.93;;;7.07;;
2562;SDS011;1291;51.420;6.970;2023-03-01T15:35:47;15.33;;;7.70;;
2562;SDS011;1291;51.420;6.970;2023-03-01T15:40:59;10.40;;;7.63;;
2562;SDS011;1291;51.420;6.970;2023-03-01T15:43:36;10.53;;;7.17;;
2562;SDS011;1291;51.420;6.970;2023-03-01T15:46:28;8.97;;;6.63;;
2562;SDS011;1291;51.420;6.970;2023-03-01T15:49:02;9.53;;;6.77;;
2562;SDS011;1291;51.420;6.970;2023-03-01T15:51:35;9.20;;;7.60;;
2562;SDS011;1291;51.420;6.970;2023-03-01T15:54:13;9.70;;;7.37;;
2562;SDS011;1291;51.420;6.970;2023-03-01T15:56:43;11.57;;;7.63;;
2562;SDS011;1291;51.420;6.970;2023-03-01T15:59:09;12.57;;;7.33;;
2562;SDS011;1291;51.420;6.970;2023-03-01T16:01:38;10.87;;;7.43;;
2562;SDS011;1291;51.420;6.970;2023-03-01T16:04:03;9.07;;;6.50;;
2562;SDS011;1291;51.420;6.970;2023-03-01T16:06:29;10.43;;;7.20;;
2562;SDS011;1291;51.420;6.970;2023-03-01T16:08:54;10.63;;;6.73;;
2562;SDS011;1291;51.420;6.970;2023-03-01T16:11:19;12.93;;;8.00;;
2562;SDS011;1291;51.420;6.970;2023-03-01T16:13:45;12.17;;;7.47;;
2562;SDS011;1291;51.420;6.970;2023-03-01T16:16:11;10.07;;;7.77;;
2562;SDS011;1291;51.420;6.970;2023-03-01T16:18:40;8.13;;;6.93;;
2562;SDS011;1291;51.420;6.970;2023-03-01T16:21:09;9.90;;;7.70;;
2562;SDS011;1291;51.420;6.970;2023-03-01T16:23:37;11.03;;;7.60;;
2562;SDS011;1291;51.420;6.970;2023-03-01T16:26:02;10.50;;;7.10;;
2562;SDS011;1291;51.420;6.970;2023-03-01T16:28:28;11.63;;;7.30;;
2562;SDS011;1291;51.420;6.970;2023-03-01T16:30:53;9.97;;;6.67;;
2562;SDS011;1291;51.420;6.970;2023-03-01T16:33:18;11.00;;;7.50;;
2562;SDS011;1291;51.420;6.970;2023-03-01T16:35:44;11.10;;;6.93;;
2562;SDS011;1291;51.420;6.970;2023-03-01T16:38:10;10.33;;;7.27;;
2562;SDS011;1291;51.420;6.970;2023-03-01T16:40:35;9.60;;;6.73;;
2562;SDS011;1291;51.420;6.970;2023-03-01T16:43:01;9.47;;;6.90;;
2562;SDS011;1291;51.420;6.970;2023-03-01T16:45:33;11.70;;;6.00;;
2562;SDS011;1291;51.420;6.970;2023-03-01T16:48:05;9.43;;;6.73;;
2562;SDS011;1291;51.420;6.970;2023-03-01T16:50:31;9.67;;;6.07;;
2562;SDS011;1291;51.420;6.970;2023-03-01T16:52:57;9.30;;;6.63;;
2562;SDS011;1291;51.420;6.970;2023-03-01T16:55:22;8.47;;;5.93;;
2562;SDS011;1291;51.420;6.970;2023-03-01T16:57:48;6.97;;;5.70;;
2562;SDS011;1291;51.420;6.970;2023-03-01T17:00:13;8.20;;;5.90;;
2562;SDS011;1291;51.420;6.970;2023-03-01T17:02:40;8.93;;;6.00;;
2562;SDS011;1291;51.420;6.970;2023-03-01T17:05:06;8.30;;;5.90;;
2562;SDS011;1291;51.420;6.970;2023-03-01T17:07:32;8.57;;;5.17;;